Taylor, Canada
Current Conditions -  °F | °C
As of 12:00 AM on Friday 26 Dec 2014 (Local Time) from CYXJ Reporting Station
Light Fog Light Fog  
Wind Chill: -10°   Ceiling: Unl
Heat Index:   Visibility: 3mi
Dew Point: -4°   Wind: 6mph
Humidity: 78%   Direction: 150°SSE
Pressure: 29.99"   Gusts: NA
Location:  56.15°N, 120.67°W
Report Text: CYXJ 260700Z 15005KT 3SM R29/1600V2400FT/N BR MIFG SKC M17/M20 A2999 RMK SLP215
Loading
Personal Weather Stations






























Interactive Weather Map New forecast layout! Learn more

10-Day Weather Forecast

Advertisements
Track Severe Weather on mobile